createdAt,value
2024-02-19T00:00:57.167Z,52.69
2024-02-19T00:01:56.887Z,52.69
2024-02-19T00:02:56.708Z,52.69
2024-02-19T00:03:56.788Z,52.69
2024-02-19T00:04:56.774Z,52.69
2024-02-19T00:05:56.737Z,52.69
2024-02-19T00:06:56.795Z,52.69
2024-02-19T00:07:56.885Z,52.69
2024-02-19T00:08:56.753Z,52.69
2024-02-19T00:09:56.772Z,52.69
2024-02-19T00:10:56.790Z,52.69
2024-02-19T00:11:56.798Z,52.69
2024-02-19T00:12:56.829Z,52.69
2024-02-19T00:13:56.778Z,52.69
2024-02-19T00:14:56.767Z,52.69
2024-02-19T00:15:56.831Z,52.69
2024-02-19T00:16:56.801Z,52.69
2024-02-19T00:17:56.864Z,52.69
2024-02-19T00:18:56.900Z,52.69
2024-02-19T00:19:56.904Z,52.69
2024-02-19T00:20:56.812Z,52.69
2024-02-19T00:21:56.862Z,52.69
2024-02-19T00:22:56.853Z,52.69
2024-02-19T00:23:56.852Z,52.69
2024-02-19T00:24:56.908Z,52.69
2024-02-19T00:25:56.904Z,52.69
2024-02-19T00:26:56.919Z,52.69
2024-02-19T00:27:56.932Z,52.69
2024-02-19T00:28:56.918Z,52.69
2024-02-19T00:29:56.937Z,52.69
2024-02-19T00:30:56.963Z,52.69
2024-02-19T00:31:56.960Z,52.69
2024-02-19T00:32:57.069Z,52.69
2024-02-19T00:33:57.069Z,52.69
2024-02-19T00:34:56.980Z,52.69
2024-02-19T00:35:57.020Z,52.69
2024-02-19T00:36:57.050Z,52.69
2024-02-19T00:37:57.032Z,52.69
2024-02-19T00:38:57.033Z,52.69
2024-02-19T00:39:57.110Z,52.69
2024-02-19T00:40:57.039Z,52.69
2024-02-19T00:41:57.060Z,52.69
2024-02-19T00:42:57.153Z,52.69
2024-02-19T00:43:57.094Z,52.69
2024-02-19T00:44:57.088Z,52.69
2024-02-19T00:45:57.135Z,52.69
2024-02-19T00:46:57.114Z,52.69
2024-02-19T00:47:57.190Z,52.69
2024-02-19T00:48:57.225Z,52.69
2024-02-19T00:49:57.381Z,52.69
2024-02-19T00:50:57.142Z,52.69
2024-02-19T00:51:57.221Z,52.69
2024-02-19T00:52:57.175Z,52.69
2024-02-19T00:53:57.199Z,52.69
2024-02-19T00:54:57.223Z,52.69
2024-02-19T00:55:57.203Z,52.69
2024-02-19T00:56:57.219Z,52.69
2024-02-19T00:57:57.262Z,52.69
2024-02-19T00:58:57.248Z,52.69
2024-02-19T00:59:57.266Z,52.69
2024-02-19T01:00:57.333Z,52.69
2024-02-19T01:01:57.295Z,52.69
2024-02-19T01:02:57.295Z,52.69
2024-02-19T01:03:57.406Z,52.69
2024-02-19T01:04:57.362Z,52.69
2024-02-19T01:05:57.320Z,52.69
2024-02-19T01:06:57.568Z,52.69
2024-02-19T01:07:57.286Z,52.69
2024-02-19T01:08:57.289Z,52.69
2024-02-19T01:09:57.407Z,52.69
2024-02-19T01:10:57.335Z,52.69
2024-02-19T01:11:57.326Z,52.69
2024-02-19T01:12:57.362Z,52.69
2024-02-19T01:13:57.340Z,52.69
2024-02-19T01:14:57.338Z,52.69
2024-02-19T01:15:57.404Z,52.69
2024-02-19T01:16:57.345Z,52.69
2024-02-19T01:17:57.371Z,52.69
2024-02-19T01:18:57.420Z,52.69
2024-02-19T01:19:57.462Z,52.69
2024-02-19T01:20:57.350Z,52.69
2024-02-19T01:21:57.423Z,52.69
2024-02-19T01:22:57.358Z,52.69
2024-02-19T01:23:57.365Z,52.69
2024-02-19T01:24:57.397Z,52.69
2024-02-19T01:25:57.384Z,52.69
2024-02-19T01:26:57.394Z,52.69
2024-02-19T01:27:57.447Z,52.69
2024-02-19T01:28:57.431Z,52.69
2024-02-19T01:29:57.451Z,52.69
2024-02-19T01:30:57.496Z,52.69
2024-02-19T01:31:57.465Z,52.69
2024-02-19T01:32:57.556Z,52.69
2024-02-19T01:33:57.510Z,52.69
2024-02-19T01:34:57.591Z,52.69
2024-02-19T01:35:57.481Z,52.69
2024-02-19T01:36:57.551Z,52.69
2024-02-19T01:37:57.535Z,52.69
2024-02-19T01:38:57.529Z,52.69
2024-02-19T01:39:57.557Z,52.69
2024-02-19T01:40:57.557Z,52.69
2024-02-19T01:41:57.602Z,52.69
2024-02-19T01:42:57.607Z,52.69
2024-02-19T01:43:57.628Z,52.69
2024-02-19T01:44:57.656Z,52.69
2024-02-19T01:45:57.658Z,52.69
2024-02-19T01:46:57.642Z,52.69
2024-02-19T01:47:57.744Z,52.69
2024-02-19T01:48:57.729Z,52.69
2024-02-19T01:49:57.688Z,52.69
2024-02-19T01:50:57.677Z,52.69
2024-02-19T01:51:57.779Z,52.69
2024-02-19T01:52:57.740Z,52.69
2024-02-19T01:53:57.792Z,52.69
2024-02-19T01:54:57.773Z,52.69
2024-02-19T01:55:57.780Z,52.69
2024-02-19T01:56:57.789Z,52.69
2024-02-19T01:57:57.888Z,52.69
2024-02-19T01:58:57.808Z,52.69
2024-02-19T01:59:57.813Z,52.69
2024-02-19T02:00:57.889Z,52.69
2024-02-19T02:01:57.898Z,52.69
2024-02-19T02:02:57.876Z,52.69
2024-02-19T02:03:57.933Z,52.69
2024-02-19T02:04:57.875Z,52.69
2024-02-19T02:07:19.936Z,52.69
2024-02-19T02:07:57.894Z,52.69
2024-02-19T02:08:57.903Z,52.69
2024-02-19T02:09:57.900Z,52.69
2024-02-19T02:10:57.929Z,52.69
2024-02-19T02:11:57.904Z,52.69
2024-02-19T02:12:57.923Z,52.69
2024-02-19T02:13:58.561Z,52.69
2024-02-19T02:14:57.888Z,52.69
2024-02-19T02:15:57.957Z,52.69
2024-02-19T02:16:57.910Z,52.69
2024-02-19T02:17:57.976Z,52.69
2024-02-19T02:18:58.083Z,52.69
2024-02-19T02:19:58.075Z,52.69
2024-02-19T02:20:57.913Z,52.69
2024-02-19T02:21:57.914Z,52.69
2024-02-19T02:22:57.916Z,52.69
2024-02-19T02:23:57.927Z,52.69
2024-02-19T02:24:57.940Z,52.69
2024-02-19T02:25:57.920Z,52.69
2024-02-19T02:26:57.916Z,52.69
2024-02-19T02:27:57.953Z,52.69
2024-02-19T02:28:57.925Z,52.69
2024-02-19T02:29:57.923Z,52.69
2024-02-19T02:30:57.961Z,52.69
2024-02-19T02:31:57.935Z,52.69
2024-02-19T02:32:57.991Z,52.69
2024-02-19T02:33:58.021Z,52.69
2024-02-19T02:34:58.091Z,52.69
2024-02-19T02:35:57.934Z,52.69
2024-02-19T02:36:58.010Z,52.69
2024-02-19T02:37:57.955Z,52.69
2024-02-19T02:38:57.939Z,52.69
2024-02-19T02:39:57.956Z,52.69
2024-02-19T02:40:57.940Z,52.69
2024-02-19T02:41:57.944Z,52.69
2024-02-19T02:42:57.990Z,52.69
2024-02-19T02:43:57.944Z,52.69
2024-02-19T02:44:57.957Z,52.69
2024-02-19T02:45:57.979Z,52.69
2024-02-19T02:46:57.948Z,52.69
2024-02-19T02:47:58.041Z,52.69
2024-02-19T02:48:58.121Z,52.69
2024-02-19T02:49:58.018Z,52.69
2024-02-19T02:50:57.966Z,52.69
2024-02-19T02:51:58.032Z,52.69
2024-02-19T02:52:57.970Z,52.69
2024-02-19T02:53:57.993Z,52.69
2024-02-19T02:54:57.984Z,52.69
2024-02-19T02:55:57.960Z,52.69
2024-02-19T02:56:57.967Z,52.69
2024-02-19T02:57:58.008Z,52.69
2024-02-19T02:58:57.968Z,52.69
2024-02-19T02:59:57.959Z,52.69
2024-02-19T03:00:58.080Z,52.69
2024-02-19T03:01:58.020Z,52.69
2024-02-19T03:02:57.990Z,52.69
2024-02-19T03:03:58.043Z,52.69
2024-02-19T03:04:58.122Z,52.69
2024-02-19T03:05:57.982Z,52.69
2024-02-19T03:06:58.048Z,52.69
2024-02-19T03:07:58.042Z,52.69
2024-02-19T03:08:58.066Z,52.69
2024-02-19T03:09:58.055Z,52.69
2024-02-19T03:10:58.014Z,52.69
2024-02-19T03:11:57.992Z,52.69
2024-02-19T03:12:58.023Z,52.69
2024-02-19T03:13:57.994Z,52.69
2024-02-19T03:14:58.012Z,52.69
2024-02-19T03:15:58.051Z,52.69
2024-02-19T03:16:57.997Z,52.69
2024-02-19T03:17:58.032Z,52.69
2024-02-19T03:18:58.087Z,52.69
2024-02-19T03:19:58.097Z,52.69
2024-02-19T03:20:58.016Z,52.69
2024-02-19T03:21:58.062Z,52.69
2024-02-19T03:22:58.034Z,52.69
2024-02-19T03:23:58.024Z,52.69
2024-02-19T03:24:58.022Z,52.69
2024-02-19T03:25:58.017Z,52.69
2024-02-19T03:26:58.031Z,52.69
2024-02-19T03:27:58.060Z,52.69
2024-02-19T03:28:58.035Z,52.69
2024-02-19T03:29:58.040Z,52.69
2024-02-19T03:30:58.083Z,52.69
2024-02-19T03:31:58.036Z,52.69
2024-02-19T03:32:58.105Z,52.69
2024-02-19T03:33:58.080Z,52.69
2024-02-19T03:34:58.056Z,52.69
2024-02-19T03:35:58.041Z,52.69
2024-02-19T03:36:58.069Z,52.69
2024-02-19T03:37:58.045Z,52.69
2024-02-19T03:38:58.044Z,52.69
2024-02-19T03:39:58.069Z,52.69
2024-02-19T03:40:58.056Z,52.69
2024-02-19T03:41:58.050Z,52.69
2024-02-19T03:42:58.080Z,52.69
2024-02-19T03:43:58.045Z,52.69
2024-02-19T03:44:58.052Z,52.69
2024-02-19T03:45:58.065Z,52.69
2024-02-19T03:47:00.824Z,52.69
2024-02-19T03:47:58.101Z,52.69
2024-02-19T03:48:58.327Z,52.69
2024-02-19T03:49:58.099Z,52.69
2024-02-19T03:50:58.059Z,52.69
2024-02-19T03:51:58.116Z,52.69
2024-02-19T03:52:58.061Z,52.69
2024-02-19T03:53:58.090Z,52.69
2024-02-19T03:54:58.069Z,52.69
2024-02-19T03:55:58.059Z,52.69
2024-02-19T03:56:58.069Z,52.69
2024-02-19T03:57:58.075Z,52.69
2024-02-19T03:58:58.074Z,52.69
2024-02-19T03:59:58.070Z,52.69
2024-02-19T04:00:58.093Z,52.69
2024-02-19T04:01:58.095Z,52.69
2024-02-19T04:02:58.067Z,52.69
2024-02-19T04:03:58.178Z,52.69
2024-02-19T04:04:58.156Z,52.69
2024-02-19T04:05:58.111Z,52.69
2024-02-19T04:06:58.152Z,52.69
2024-02-19T04:07:58.078Z,52.69
2024-02-19T04:08:58.088Z,52.69
2024-02-19T04:09:58.110Z,52.69
2024-02-19T04:10:58.091Z,52.69
2024-02-19T04:11:58.123Z,52.69
2024-02-19T04:12:58.185Z,52.69
2024-02-19T04:13:58.084Z,52.69
2024-02-19T04:14:58.097Z,52.69
2024-02-19T04:15:58.200Z,52.69
2024-02-19T04:16:58.094Z,52.69
2024-02-19T04:17:58.147Z,52.69
2024-02-19T04:18:58.251Z,52.69
2024-02-19T04:19:58.212Z,52.69
2024-02-19T04:20:58.129Z,52.69
2024-02-19T04:21:58.117Z,52.69
2024-02-19T04:22:58.109Z,52.69
2024-02-19T04:23:58.095Z,52.69
2024-02-19T04:24:58.122Z,52.69
2024-02-19T04:25:58.101Z,52.69
2024-02-19T04:26:58.116Z,52.69
2024-02-19T04:27:58.131Z,52.69
2024-02-19T04:28:58.116Z,52.69
2024-02-19T04:29:58.097Z,52.69
2024-02-19T04:30:58.131Z,52.69
2024-02-19T04:31:58.112Z,52.69
2024-02-19T04:32:58.195Z,52.69
2024-02-19T04:33:58.353Z,52.69
2024-02-19T04:34:58.159Z,52.69
2024-02-19T04:35:58.165Z,52.69
2024-02-19T04:36:58.175Z,52.69
2024-02-19T04:37:58.144Z,52.69
2024-02-19T04:38:58.154Z,52.69
2024-02-19T04:39:58.172Z,52.69
2024-02-19T04:40:58.162Z,52.69
2024-02-19T04:42:05.412Z,50.00
2024-02-19T04:43:05.485Z,50.00
2024-02-19T04:44:05.437Z,50.00
2024-02-19T04:45:05.406Z,50.00
2024-02-19T04:46:05.442Z,50.00
2024-02-19T04:47:05.411Z,0.00
2024-02-19T04:48:05.514Z,0.00
2024-02-19T04:49:05.517Z,0.00
2024-02-19T04:50:05.476Z,0.00
2024-02-19T04:51:05.422Z,0.00
2024-02-19T04:52:05.465Z,0.00
2024-02-19T04:53:05.420Z,0.00
2024-02-19T04:54:05.448Z,0.00
2024-02-19T04:55:05.491Z,0.00
2024-02-19T04:56:05.423Z,0.00
2024-02-19T04:57:05.430Z,0.00
2024-02-19T04:58:05.465Z,0.00
2024-02-19T04:59:05.432Z,0.00
2024-02-19T05:00:05.472Z,0.00
2024-02-19T05:01:05.531Z,0.00
2024-02-19T05:02:05.525Z,0.00
2024-02-19T05:03:05.437Z,0.00
2024-02-19T05:04:05.546Z,0.00
2024-02-19T05:05:05.497Z,0.00
2024-02-19T05:06:05.459Z,0.00
2024-02-19T05:07:05.500Z,0.00
2024-02-19T05:08:05.545Z,0.00
2024-02-19T05:09:05.589Z,0.00
2024-02-19T05:10:05.787Z,0.00
2024-02-19T05:11:05.726Z,0.00
2024-02-19T05:12:05.755Z,0.00
2024-02-19T05:13:05.836Z,0.00
2024-02-19T05:14:05.867Z,0.00
2024-02-19T05:15:05.925Z,0.00
2024-02-19T05:16:06.048Z,0.00
2024-02-19T05:17:06.035Z,0.00
2024-02-19T05:18:06.202Z,0.00
2024-02-19T05:19:06.243Z,0.00
2024-02-19T05:20:06.257Z,12.84
2024-02-19T05:21:06.285Z,28.94
2024-02-19T05:22:06.354Z,45.10
2024-02-19T05:23:06.408Z,51.53
2024-02-19T05:24:06.465Z,50.68
2024-02-19T05:25:06.554Z,51.47
2024-02-19T05:26:09.691Z,50.00
2024-02-19T05:27:06.603Z,50.18
2024-02-19T05:28:06.617Z,50.51
2024-02-19T05:29:06.587Z,50.33
2024-02-19T05:30:06.600Z,50.89
2024-02-19T05:31:06.651Z,50.77
2024-02-19T05:32:06.606Z,52.36
2024-02-19T05:33:06.720Z,50.00
2024-02-19T05:34:06.619Z,50.79
2024-02-19T05:35:06.618Z,52.82
2024-02-19T05:36:06.590Z,50.99
2024-02-19T05:37:06.596Z,50.00
2024-02-19T05:38:06.613Z,50.00
2024-02-19T05:39:06.591Z,51.61
2024-02-19T05:40:06.624Z,52.00
2024-02-19T05:41:06.603Z,50.05
2024-02-19T05:42:06.612Z,50.00
2024-02-19T05:43:06.642Z,50.39
2024-02-19T05:44:06.591Z,51.55
2024-02-19T05:45:06.600Z,50.00
2024-02-19T05:46:06.610Z,51.49
2024-02-19T05:47:06.597Z,50.70
2024-02-19T05:48:06.691Z,50.16
2024-02-19T05:49:06.744Z,53.65
2024-02-19T05:50:06.734Z,50.00
2024-02-19T05:51:06.610Z,50.59
2024-02-19T05:52:06.672Z,50.10
2024-02-19T05:53:06.668Z,50.00
2024-02-19T05:54:06.613Z,51.31
2024-02-19T05:55:06.670Z,50.85
2024-02-19T05:56:06.601Z,50.32
2024-02-19T05:57:06.610Z,55.50
2024-02-19T05:58:06.619Z,50.25
2024-02-19T05:59:06.624Z,53.14
2024-02-19T06:00:06.691Z,51.67
2024-02-19T06:01:06.831Z,51.66
2024-02-19T06:02:06.901Z,51.94
2024-02-19T06:03:06.877Z,53.42
2024-02-19T06:04:06.993Z,50.72
2024-02-19T06:05:07.701Z,53.90
2024-02-19T06:06:07.111Z,50.42
2024-02-19T06:07:07.192Z,51.86
2024-02-19T06:08:07.242Z,50.56
2024-02-19T06:09:07.253Z,50.20
2024-02-19T06:10:07.435Z,50.70
2024-02-19T06:11:07.463Z,51.39
2024-02-19T06:12:07.465Z,50.03
2024-02-19T06:13:07.543Z,52.19
2024-02-19T06:14:07.657Z,51.28
2024-02-19T06:15:07.705Z,50.90
2024-02-19T06:16:07.848Z,51.03
2024-02-19T06:17:07.788Z,50.59
2024-02-19T06:18:07.919Z,51.74
2024-02-19T06:19:07.977Z,51.40
2024-02-19T06:20:08.038Z,51.30
2024-02-19T06:21:08.068Z,50.58
2024-02-19T06:22:08.175Z,50.80
2024-02-19T06:23:08.208Z,52.27
2024-02-19T06:24:08.235Z,51.14
2024-02-19T06:25:08.332Z,52.26
2024-02-19T06:26:08.382Z,51.23
2024-02-19T06:27:08.415Z,51.60
2024-02-19T06:28:08.497Z,51.39
2024-02-19T06:29:10.664Z,52.67
2024-02-19T06:30:08.580Z,52.15
2024-02-19T06:31:08.621Z,52.76
2024-02-19T06:32:08.556Z,50.38
2024-02-19T06:33:08.707Z,51.44
2024-02-19T06:34:08.643Z,51.51
2024-02-19T06:35:08.685Z,50.37
2024-02-19T06:36:08.701Z,50.52
2024-02-19T06:37:09.803Z,52.28
2024-02-19T06:38:08.593Z,51.32
2024-02-19T06:39:08.630Z,52.43
2024-02-19T06:40:08.695Z,53.20
2024-02-19T06:41:08.598Z,54.55
2024-02-19T06:42:08.608Z,56.51
2024-02-19T06:43:08.670Z,55.55
2024-02-19T06:44:08.599Z,57.05
2024-02-19T06:45:08.578Z,62.60
2024-02-19T06:46:08.633Z,64.69
2024-02-19T06:47:08.605Z,69.58
2024-02-19T06:48:09.200Z,74.27
2024-02-19T06:49:08.792Z,76.37
2024-02-19T06:50:08.680Z,77.88
2024-02-19T06:51:09.691Z,83.34
2024-02-19T06:52:08.663Z,92.55
2024-02-19T06:53:08.676Z,110.70
2024-02-19T06:54:08.673Z,121.71
2024-02-19T06:55:10.694Z,122.30
2024-02-19T06:56:08.702Z,124.97
2024-02-19T06:57:08.694Z,132.34
2024-02-19T06:58:08.698Z,123.02
2024-02-19T06:59:08.697Z,129.20
2024-02-19T07:00:08.766Z,142.04
2024-02-19T07:01:08.808Z,164.49
2024-02-19T07:02:08.909Z,195.61
2024-02-19T07:03:09.167Z,200.00
2024-02-19T07:04:08.733Z,200.00
2024-02-19T07:05:09.516Z,200.00
2024-02-19T07:06:08.731Z,200.00
2024-02-19T07:07:09.708Z,200.16
2024-02-19T07:08:08.721Z,201.44
2024-02-19T07:09:09.166Z,204.65
2024-02-19T07:10:09.792Z,200.56
2024-02-19T07:11:08.817Z,203.18
2024-02-19T07:12:08.796Z,209.29
2024-02-19T07:13:09.807Z,220.17
2024-02-19T07:14:08.838Z,232.32
2024-02-19T07:15:08.835Z,219.05
2024-02-19T07:16:08.878Z,204.92
2024-02-19T07:17:08.859Z,199.80
2024-02-19T07:18:10.672Z,199.24
2024-02-19T07:19:09.800Z,199.21
2024-02-19T07:20:09.019Z,199.53
2024-02-19T07:21:08.910Z,199.40
2024-02-19T07:22:09.002Z,199.62
2024-02-19T07:23:09.146Z,198.93
2024-02-19T07:24:08.843Z,199.23
2024-02-19T07:25:16.604Z,199.71
2024-02-19T07:26:09.922Z,199.80
2024-02-19T07:27:08.822Z,200.23
2024-02-19T07:28:08.939Z,201.16
2024-02-19T07:29:08.862Z,202.38
2024-02-19T07:30:08.837Z,205.55
2024-02-19T07:31:08.878Z,199.40
2024-02-19T07:32:08.841Z,199.87
2024-02-19T07:33:09.363Z,199.27
2024-02-19T07:34:09.251Z,199.61
2024-02-19T07:35:09.025Z,199.00
2024-02-19T07:36:08.845Z,199.55
2024-02-19T07:37:08.860Z,200.00
2024-02-19T07:38:09.087Z,197.91
2024-02-19T07:39:09.106Z,197.01
2024-02-19T07:40:09.610Z,195.88
2024-02-19T07:41:08.860Z,193.50
2024-02-19T07:42:08.923Z,189.12
2024-02-19T07:43:08.944Z,186.68
2024-02-19T07:44:08.866Z,182.29
2024-02-19T07:45:08.859Z,174.81
2024-02-19T07:46:08.866Z,166.18
2024-02-19T07:47:09.004Z,162.60
2024-02-19T07:48:09.045Z,156.51
2024-02-19T07:49:09.258Z,149.84
2024-02-19T07:50:09.183Z,143.16
2024-02-19T07:51:09.118Z,136.01
2024-02-19T07:52:09.148Z,134.38
2024-02-19T07:53:09.066Z,127.37
2024-02-19T07:54:09.136Z,123.22
2024-02-19T07:55:09.125Z,118.24
2024-02-19T07:56:09.089Z,116.65
2024-02-19T07:57:09.081Z,111.90
2024-02-19T07:58:09.105Z,110.17
2024-02-19T07:59:09.101Z,107.83
2024-02-19T08:00:09.068Z,105.70
2024-02-19T08:01:09.279Z,102.92
2024-02-19T08:02:09.268Z,101.55
2024-02-19T08:03:09.109Z,97.27
2024-02-19T08:04:09.181Z,96.54
2024-02-19T08:05:09.312Z,94.74
2024-02-19T08:06:10.094Z,92.98
2024-02-19T08:07:09.292Z,91.60
2024-02-19T08:08:09.205Z,90.55
2024-02-19T08:09:09.262Z,87.82
2024-02-19T08:10:09.379Z,85.97
2024-02-19T08:11:09.335Z,84.44
2024-02-19T08:12:09.445Z,82.97
2024-02-19T08:13:09.557Z,82.29
2024-02-19T08:14:09.550Z,80.75
2024-02-19T08:15:09.499Z,78.96
2024-02-19T08:16:09.561Z,77.36
2024-02-19T08:17:09.588Z,76.46
2024-02-19T08:18:09.715Z,75.85
2024-02-19T08:19:09.791Z,75.08
2024-02-19T08:20:09.756Z,74.46
2024-02-19T08:21:09.779Z,72.97
2024-02-19T08:22:09.802Z,73.25
2024-02-19T08:23:09.863Z,72.73
2024-02-19T08:24:09.860Z,73.44
2024-02-19T08:25:09.941Z,72.66
2024-02-19T08:26:09.920Z,72.64
2024-02-19T08:27:09.967Z,72.40
2024-02-19T08:28:10.041Z,73.29
2024-02-19T08:29:10.028Z,72.48
2024-02-19T08:30:10.083Z,73.19
2024-02-19T08:31:10.145Z,73.04
2024-02-19T08:32:11.108Z,73.88
2024-02-19T08:33:10.213Z,74.95
2024-02-19T08:34:10.434Z,74.30
2024-02-19T08:35:10.472Z,74.07
2024-02-19T08:36:10.337Z,74.73
2024-02-19T08:37:10.512Z,73.71
2024-02-19T08:38:10.646Z,72.56
2024-02-19T08:39:10.738Z,72.43
2024-02-19T08:40:10.645Z,73.64
2024-02-19T08:41:10.621Z,73.45
2024-02-19T08:42:10.682Z,71.93
2024-02-19T08:43:10.767Z,72.16
2024-02-19T08:44:10.763Z,72.91
2024-02-19T08:45:10.788Z,74.10
2024-02-19T08:46:10.837Z,74.22
2024-02-19T08:47:10.840Z,74.59
2024-02-19T08:48:10.831Z,75.33
2024-02-19T08:49:11.393Z,78.71
2024-02-19T08:50:10.882Z,90.90
2024-02-19T08:51:10.780Z,94.67
2024-02-19T08:52:10.769Z,98.23
2024-02-19T08:53:11.159Z,101.79
2024-02-19T08:54:10.782Z,104.91
2024-02-19T08:55:10.806Z,107.14
2024-02-19T08:56:10.715Z,110.00
2024-02-19T08:57:10.742Z,111.66
2024-02-19T08:58:10.809Z,112.87
2024-02-19T08:59:10.740Z,114.17
2024-02-19T09:00:11.632Z,115.24
2024-02-19T09:01:10.805Z,117.31
2024-02-19T09:02:10.780Z,117.84
2024-02-19T09:03:10.821Z,120.62
2024-02-19T09:04:10.798Z,120.96
2024-02-19T09:05:10.830Z,121.10
2024-02-19T09:06:10.824Z,122.27
2024-02-19T09:07:10.798Z,122.21
2024-02-19T09:08:10.806Z,121.75
2024-02-19T09:09:10.733Z,121.77
2024-02-19T09:10:11.421Z,119.45
2024-02-19T09:11:10.791Z,119.16
2024-02-19T09:12:10.778Z,116.28
2024-02-19T09:13:10.789Z,114.00
2024-02-19T09:14:11.166Z,112.85
2024-02-19T09:15:10.749Z,112.85
2024-02-19T09:16:10.814Z,112.20
2024-02-19T09:17:10.817Z,110.09
2024-02-19T09:18:10.914Z,109.01
2024-02-19T09:19:10.896Z,108.28
2024-02-19T09:20:10.897Z,107.52
2024-02-19T09:21:10.873Z,107.14
2024-02-19T09:22:10.888Z,107.32
2024-02-19T09:23:10.855Z,106.67
2024-02-19T09:24:10.862Z,105.61
2024-02-19T09:25:10.936Z,104.88
2024-02-19T09:26:10.896Z,104.03
2024-02-19T09:27:10.959Z,102.14
2024-02-19T09:28:10.979Z,102.08
2024-02-19T09:29:11.195Z,99.61
2024-02-19T09:30:10.963Z,100.32
2024-02-19T09:31:11.067Z,98.36
2024-02-19T09:32:11.020Z,96.86
2024-02-19T09:33:11.146Z,96.02
2024-02-19T09:34:11.178Z,96.80
2024-02-19T09:35:11.196Z,95.03
2024-02-19T09:36:11.095Z,95.50
2024-02-19T09:37:11.089Z,95.29
2024-02-19T09:38:11.063Z,91.66
2024-02-19T09:39:11.196Z,90.56
2024-02-19T09:40:11.129Z,91.04
2024-02-19T09:41:11.064Z,90.76
2024-02-19T09:42:11.091Z,89.46
2024-02-19T09:43:11.130Z,89.06
2024-02-19T09:44:11.194Z,87.66
2024-02-19T09:45:11.107Z,87.86
2024-02-19T09:46:11.116Z,87.26
2024-02-19T09:47:11.099Z,88.60
2024-02-19T09:48:11.303Z,87.25
2024-02-19T09:49:11.270Z,88.18
2024-02-19T09:50:11.339Z,88.03
2024-02-19T09:51:14.356Z,86.49
2024-02-19T09:52:12.375Z,86.57
2024-02-19T09:53:11.332Z,86.50
2024-02-19T09:54:11.320Z,86.52
2024-02-19T09:55:11.402Z,87.18
2024-02-19T09:56:11.342Z,87.42
2024-02-19T09:57:11.383Z,87.75
2024-02-19T09:58:11.344Z,86.09
2024-02-19T09:59:11.329Z,84.49
2024-02-19T10:00:11.366Z,85.20
2024-02-19T10:01:11.538Z,83.27
2024-02-19T10:02:11.559Z,83.35
2024-02-19T10:03:11.556Z,81.23
2024-02-19T10:04:11.711Z,81.23
2024-02-19T10:05:11.826Z,81.78
2024-02-19T10:06:11.874Z,80.29
2024-02-19T10:07:11.909Z,80.79
2024-02-19T10:08:11.899Z,78.37
2024-02-19T10:09:11.938Z,78.21
2024-02-19T10:10:12.046Z,77.74
2024-02-19T10:11:12.152Z,79.20
2024-02-19T10:12:12.148Z,77.97
2024-02-19T10:13:12.233Z,77.58
2024-02-19T10:14:12.280Z,78.56
2024-02-19T10:15:12.335Z,78.86
2024-02-19T10:16:12.529Z,81.68
2024-02-19T10:17:12.466Z,82.28
2024-02-19T10:18:12.632Z,82.36
2024-02-19T10:19:12.881Z,81.58
2024-02-19T10:20:12.607Z,81.16
2024-02-19T10:21:12.670Z,81.46
2024-02-19T10:22:12.713Z,81.92
2024-02-19T10:23:12.740Z,79.37
2024-02-19T10:24:13.200Z,79.35
2024-02-19T10:25:12.961Z,77.13
2024-02-19T10:26:12.917Z,77.35
2024-02-19T10:27:12.959Z,76.36
2024-02-19T10:28:13.069Z,74.38
2024-02-19T10:29:13.203Z,74.49
2024-02-19T10:30:13.140Z,75.88
2024-02-19T10:31:13.246Z,74.84
2024-02-19T10:32:13.255Z,74.90
2024-02-19T10:33:13.741Z,76.50
2024-02-19T10:34:13.547Z,75.61
2024-02-19T10:35:13.517Z,74.86
2024-02-19T10:36:13.541Z,76.56
2024-02-19T10:37:13.654Z,76.15
2024-02-19T10:38:13.670Z,76.61
2024-02-19T10:39:14.164Z,74.03
2024-02-19T10:40:13.873Z,75.15
2024-02-19T10:41:13.787Z,74.28
2024-02-19T10:42:14.686Z,73.13
2024-02-19T10:43:13.902Z,72.88
2024-02-19T10:44:14.175Z,71.26
2024-02-19T10:45:13.834Z,70.81
2024-02-19T10:46:13.853Z,68.60
2024-02-19T10:47:13.840Z,67.11
2024-02-19T10:48:13.917Z,66.43
2024-02-19T10:49:14.256Z,64.55
2024-02-19T10:50:14.131Z,61.89
2024-02-19T10:51:13.942Z,61.53
2024-02-19T10:52:14.022Z,59.58
2024-02-19T10:53:14.001Z,59.43
2024-02-19T10:54:14.033Z,59.13
2024-02-19T10:55:17.164Z,56.98
2024-02-19T10:56:15.080Z,57.05
2024-02-19T10:57:14.061Z,57.31
2024-02-19T10:58:14.123Z,57.83
2024-02-19T10:59:14.064Z,58.71
2024-02-19T11:00:14.069Z,60.03
2024-02-19T11:01:14.184Z,59.67
2024-02-19T11:02:14.733Z,62.35
2024-02-19T11:03:14.103Z,61.16
2024-02-19T11:04:14.242Z,61.77
2024-02-19T11:05:14.076Z,64.63
2024-02-19T11:06:14.124Z,65.41
2024-02-19T11:07:14.078Z,66.02
2024-02-19T11:08:14.066Z,69.18
2024-02-19T11:09:14.074Z,72.60
2024-02-19T11:10:14.296Z,73.52
2024-02-19T11:11:14.182Z,75.16
2024-02-19T11:12:14.082Z,75.53
2024-02-19T11:13:14.122Z,78.82
2024-02-19T11:14:14.126Z,79.48
2024-02-19T11:15:14.155Z,80.56
2024-02-19T11:16:14.240Z,81.31
2024-02-19T11:17:14.237Z,82.92
2024-02-19T11:18:14.295Z,83.47
2024-02-19T11:19:14.368Z,85.85
2024-02-19T11:20:14.318Z,84.89
2024-02-19T11:21:14.315Z,86.18
2024-02-19T11:22:14.382Z,87.76
2024-02-19T11:23:14.358Z,86.93
2024-02-19T11:24:15.716Z,89.55
2024-02-19T11:25:15.202Z,89.23
2024-02-19T11:26:14.479Z,89.76
2024-02-19T11:27:14.506Z,91.43
2024-02-19T11:28:14.495Z,91.81
2024-02-19T11:29:14.501Z,91.97
2024-02-19T11:30:14.486Z,90.61
2024-02-19T11:31:14.552Z,88.37
2024-02-19T11:32:14.516Z,87.20
2024-02-19T11:33:14.550Z,85.30
2024-02-19T11:34:14.759Z,84.16
2024-02-19T11:35:14.608Z,85.72
2024-02-19T11:36:14.532Z,88.71
2024-02-19T11:37:14.570Z,90.70
2024-02-19T11:38:14.604Z,94.14
2024-02-19T11:39:14.637Z,98.64
2024-02-19T11:40:14.754Z,107.12
2024-02-19T11:41:14.769Z,110.34
2024-02-19T11:42:14.818Z,113.85
2024-02-19T11:43:14.913Z,115.56
2024-02-19T11:44:14.966Z,119.43
2024-02-19T11:45:15.225Z,121.29
2024-02-19T11:46:15.118Z,124.10
2024-02-19T11:47:15.967Z,123.44
2024-02-19T11:48:15.313Z,125.38
2024-02-19T11:49:15.350Z,126.24
2024-02-19T11:50:15.481Z,127.58
2024-02-19T11:51:15.463Z,129.34
2024-02-19T11:52:15.842Z,131.66
2024-02-19T11:53:15.575Z,131.68
2024-02-19T11:54:15.649Z,132.74
2024-02-19T11:55:15.748Z,135.11
2024-02-19T11:56:15.770Z,136.27
2024-02-19T11:57:15.887Z,141.13
2024-02-19T11:58:15.914Z,145.74
2024-02-19T11:59:15.964Z,151.10
2024-02-19T12:00:16.017Z,156.59
2024-02-19T12:01:16.185Z,158.98
2024-02-19T12:02:16.252Z,160.74
2024-02-19T12:03:16.209Z,163.02
2024-02-19T12:04:16.401Z,164.03
2024-02-19T12:05:16.373Z,164.52
2024-02-19T12:06:16.496Z,165.77
2024-02-19T12:07:16.551Z,166.05
2024-02-19T12:08:16.553Z,167.44
2024-02-19T12:09:16.595Z,168.52
2024-02-19T12:10:16.691Z,169.79
2024-02-19T12:11:17.045Z,171.02
2024-02-19T12:12:16.763Z,170.90
2024-02-19T12:13:16.924Z,172.07
2024-02-19T12:14:16.934Z,172.54
2024-02-19T12:15:16.948Z,172.29
2024-02-19T12:16:17.057Z,173.02
2024-02-19T12:17:17.093Z,170.44
2024-02-19T12:18:17.294Z,162.77
2024-02-19T12:19:17.770Z,163.75
2024-02-19T12:20:17.409Z,161.65
2024-02-19T12:21:17.361Z,159.37
2024-02-19T12:22:17.459Z,157.10
2024-02-19T12:23:17.461Z,156.12
2024-02-19T12:24:17.818Z,156.14
2024-02-19T12:25:17.645Z,156.16
2024-02-19T12:26:17.631Z,153.64
2024-02-19T12:27:17.726Z,153.40
2024-02-19T12:28:17.837Z,152.59
2024-02-19T12:29:17.861Z,152.80
2024-02-19T12:30:17.913Z,151.91
2024-02-19T12:31:18.034Z,151.31
2024-02-19T12:32:18.047Z,151.59
2024-02-19T12:33:18.205Z,150.44
2024-02-19T12:34:18.300Z,150.02
2024-02-19T12:35:18.397Z,149.79
2024-02-19T12:36:18.423Z,150.04
2024-02-19T12:37:18.413Z,149.51
2024-02-19T12:38:18.457Z,150.06
2024-02-19T12:39:18.563Z,148.28
2024-02-19T12:40:18.662Z,148.04
2024-02-19T12:41:18.658Z,149.08
2024-02-19T12:42:18.728Z,147.96
2024-02-19T12:43:18.862Z,147.07
2024-02-19T12:44:18.873Z,147.48
2024-02-19T12:45:19.031Z,147.35
2024-02-19T12:46:19.127Z,147.86
2024-02-19T12:47:19.088Z,148.27
2024-02-19T12:48:19.267Z,146.75
2024-02-19T12:49:19.993Z,146.22
2024-02-19T12:50:19.344Z,144.88